createdAt,value
2022-12-11T16:05:41.097Z,8.60
2022-12-11T16:05:46.075Z,8.90
2022-12-11T16:06:47.079Z,71.20
2022-12-11T16:07:46.007Z,73.20
2022-12-11T16:08:45.935Z,71.50
2022-12-11T16:09:45.816Z,73.90
2022-12-11T16:10:48.892Z,73.90
2022-12-11T16:11:45.741Z,73.70
2022-12-11T16:12:45.717Z,73.00
2022-12-11T16:13:45.580Z,72.60
2022-12-11T16:14:45.517Z,72.00
2022-12-11T16:15:45.705Z,71.40
2022-12-11T16:16:45.439Z,74.00
2022-12-11T16:17:45.301Z,71.10
2022-12-11T16:18:45.288Z,73.70
2022-12-11T16:19:45.226Z,73.40
2022-12-11T16:20:45.166Z,70.10
2022-12-11T16:21:45.074Z,71.10
2022-12-11T16:22:45.042Z,72.70
2022-12-11T16:23:44.995Z,71.20
2022-12-11T16:24:44.899Z,70.20
2022-12-11T16:25:44.783Z,73.00
2022-12-11T16:26:44.743Z,68.40
2022-12-11T16:27:44.747Z,71.20
2022-12-11T16:28:44.661Z,69.00
2022-12-11T16:29:44.547Z,71.00
2022-12-11T16:30:44.550Z,73.90
2022-12-11T16:31:44.420Z,71.30
2022-12-11T16:32:44.349Z,71.70
2022-12-11T16:33:44.327Z,69.30
2022-12-11T16:34:44.257Z,67.60
2022-12-11T16:35:44.165Z,68.60
2022-12-11T16:36:44.170Z,71.70
2022-12-11T16:37:44.117Z,68.40
2022-12-11T16:38:47.301Z,73.00
2022-12-11T16:39:43.927Z,69.50
2022-12-11T16:40:44.287Z,72.20
2022-12-11T16:41:43.840Z,70.00
2022-12-11T16:42:43.698Z,72.00
2022-12-11T16:43:43.699Z,70.60
2022-12-11T16:44:44.342Z,73.50
2022-12-11T16:45:43.478Z,72.80
2022-12-11T16:48:22.398Z,66.80
2022-12-11T16:49:23.413Z,71.90
2022-12-11T16:50:23.301Z,74.70
2022-12-11T16:51:23.196Z,71.50
2022-12-11T16:52:23.166Z,72.00
2022-12-11T16:53:23.075Z,72.60
2022-12-11T16:54:22.996Z,74.60
2022-12-11T16:55:22.965Z,73.80
2022-12-11T16:56:22.883Z,76.30
2022-12-11T16:57:22.820Z,77.90
2022-12-11T16:58:22.774Z,79.00
2022-12-11T16:59:22.703Z,79.80
2022-12-11T17:00:22.610Z,77.20
2022-12-11T17:01:22.582Z,79.00
2022-12-11T17:02:22.595Z,77.70
2022-12-11T17:03:22.492Z,75.80
2022-12-11T17:04:43.355Z,73.30
2022-12-11T17:05:22.278Z,72.10
2022-12-11T17:06:22.270Z,71.60
2022-12-11T17:07:22.172Z,71.20
2022-12-11T17:08:22.229Z,70.60
2022-12-11T17:09:22.016Z,71.60
2022-12-11T17:10:22.272Z,73.90
2022-12-11T17:11:21.884Z,72.30
2022-12-11T17:12:21.848Z,73.10
2022-12-11T17:13:21.777Z,77.50
2022-12-11T17:14:21.717Z,76.70
2022-12-11T17:15:21.633Z,75.80
2022-12-11T17:16:21.619Z,74.40
2022-12-11T17:17:21.554Z,77.20
2022-12-11T17:18:21.541Z,74.30
2022-12-11T17:19:21.407Z,75.20
2022-12-11T17:20:21.345Z,75.90
2022-12-11T17:21:21.262Z,72.90
2022-12-11T17:22:42.205Z,72.90
2022-12-11T17:23:21.119Z,72.80
2022-12-11T17:24:21.044Z,71.50
2022-12-11T17:25:21.008Z,73.80
2022-12-11T17:26:20.944Z,73.80
2022-12-11T17:27:20.849Z,73.60
2022-12-11T17:28:20.825Z,72.80
2022-12-11T17:29:20.718Z,74.30
2022-12-11T17:30:20.711Z,73.20
2022-12-11T17:31:20.675Z,72.60
2022-12-11T17:32:20.618Z,73.60
2022-12-11T17:33:20.489Z,72.20
2022-12-11T17:34:20.451Z,72.20
2022-12-11T17:35:20.389Z,71.30
2022-12-11T17:36:20.289Z,73.40
2022-12-11T17:37:20.229Z,72.90
2022-12-11T17:38:20.168Z,71.90
2022-12-11T17:39:20.075Z,75.30
2022-12-11T17:42:00.606Z,69.80
2022-12-11T17:43:01.480Z,74.50
2022-12-11T17:44:01.446Z,72.50
2022-12-11T17:45:01.358Z,74.00
2022-12-11T17:46:01.359Z,74.30
2022-12-11T17:47:06.064Z,79.60
2022-12-11T17:48:01.202Z,73.80
2022-12-11T17:49:01.063Z,72.90
2022-12-11T17:50:01.063Z,77.60
2022-12-11T17:51:00.986Z,74.80
2022-12-11T17:52:00.960Z,74.20
2022-12-11T17:53:00.840Z,76.10
2022-12-11T17:54:00.790Z,74.80
2022-12-11T17:55:00.669Z,74.80
2022-12-11T17:56:00.663Z,77.10
2022-12-11T17:57:00.568Z,74.60
2022-12-11T17:58:00.528Z,75.30
2022-12-11T17:59:00.433Z,75.90
2022-12-11T18:00:00.398Z,77.20
2022-12-11T18:01:00.308Z,75.00
2022-12-11T18:02:00.294Z,76.40
2022-12-11T18:03:00.176Z,75.10
2022-12-11T18:04:00.216Z,75.50
2022-12-11T18:05:00.079Z,75.90
2022-12-11T18:06:00.048Z,76.00
2022-12-11T18:06:59.915Z,74.40
2022-12-11T18:07:59.877Z,71.50
2022-12-11T18:08:59.785Z,73.30
2022-12-11T18:09:59.731Z,72.80
2022-12-11T18:11:20.673Z,75.90
2022-12-11T18:11:59.594Z,75.60
2022-12-11T18:12:59.513Z,75.30
2022-12-11T18:13:59.542Z,73.30
2022-12-11T18:14:59.529Z,75.30
2022-12-11T18:15:59.347Z,74.30
2022-12-11T18:16:59.260Z,74.00
2022-12-11T18:17:59.181Z,76.20
2022-12-11T18:18:59.116Z,72.50
2022-12-11T18:19:59.063Z,73.70
2022-12-11T18:20:59.036Z,71.10
2022-12-11T18:21:58.941Z,73.30
2022-12-11T18:22:58.913Z,74.80
2022-12-11T18:23:58.788Z,70.80
2022-12-11T18:24:58.746Z,71.00
2022-12-11T18:25:58.754Z,73.30
2022-12-11T18:26:58.599Z,73.60
2022-12-11T18:27:58.551Z,76.70
2022-12-11T18:28:58.533Z,73.00
2022-12-11T18:29:58.455Z,70.40
2022-12-11T18:30:58.421Z,70.90
2022-12-11T18:31:58.330Z,70.90
2022-12-11T18:32:58.203Z,73.60
2022-12-11T18:33:58.151Z,70.80
2022-12-11T18:34:58.158Z,71.70
2022-12-11T18:35:58.007Z,73.30
2022-12-11T18:36:57.972Z,71.60
2022-12-11T18:37:57.929Z,72.00
2022-12-11T18:38:57.838Z,71.10
2022-12-11T18:39:57.775Z,69.90
2022-12-11T18:40:57.759Z,69.60
2022-12-11T18:42:30.599Z,70.40
2022-12-11T18:42:57.647Z,71.20
2022-12-11T18:43:57.484Z,71.20
2022-12-11T18:44:57.439Z,70.50
2022-12-11T18:45:57.414Z,68.10
2022-12-11T18:46:57.412Z,69.80
2022-12-11T18:47:57.307Z,69.30
2022-12-11T18:48:57.219Z,71.50
2022-12-11T18:49:57.879Z,70.70
2022-12-11T18:50:57.071Z,70.20
2022-12-11T18:51:56.970Z,72.50
2022-12-11T18:53:17.950Z,73.60
2022-12-11T18:53:56.867Z,73.00
2022-12-11T18:54:56.804Z,73.00
2022-12-11T18:56:00.374Z,75.50
2022-12-11T18:56:56.657Z,75.60
2022-12-11T18:57:56.608Z,78.10
2022-12-11T18:58:56.556Z,75.60
2022-12-11T18:59:56.487Z,73.60
2022-12-11T19:00:56.439Z,71.70
2022-12-11T19:01:56.396Z,73.10
2022-12-11T19:02:56.302Z,71.40
2022-12-11T19:04:02.023Z,70.10
2022-12-11T19:04:56.173Z,72.10
2022-12-11T19:05:56.118Z,68.80
2022-12-11T19:06:56.007Z,69.80
2022-12-11T19:07:56.021Z,70.40
2022-12-11T19:08:55.883Z,69.20
2022-12-11T19:09:55.825Z,67.20
2022-12-11T19:10:55.788Z,66.70
2022-12-11T19:11:55.695Z,67.10
2022-12-11T19:12:55.634Z,64.30
2022-12-11T19:13:55.576Z,64.80
2022-12-11T19:14:55.505Z,66.70
2022-12-11T19:15:55.523Z,64.90
2022-12-11T19:16:55.814Z,66.10
2022-12-11T19:17:55.294Z,65.60
2022-12-11T19:18:55.248Z,65.40
2022-12-11T19:19:55.156Z,65.80
2022-12-11T19:21:06.483Z,63.80
2022-12-11T19:21:55.101Z,66.60
2022-12-11T19:22:55.023Z,67.70
2022-12-11T19:23:54.924Z,69.20
2022-12-11T19:24:54.832Z,66.80
2022-12-11T19:25:54.788Z,67.60
2022-12-11T19:26:54.754Z,68.40
2022-12-11T19:27:54.638Z,65.70
2022-12-11T19:28:54.625Z,65.50
2022-12-11T19:29:54.560Z,63.90
2022-12-11T19:30:54.442Z,66.10
2022-12-11T19:31:54.403Z,63.70
2022-12-11T19:32:54.315Z,65.70
2022-12-11T19:33:54.271Z,65.30
2022-12-11T19:34:54.240Z,66.00
2022-12-11T19:35:54.144Z,63.60
2022-12-11T19:36:54.101Z,64.50
2022-12-11T19:37:54.014Z,64.50
2022-12-11T19:38:57.920Z,63.60
2022-12-11T19:39:53.891Z,64.10
2022-12-11T19:40:53.838Z,62.10
2022-12-11T19:41:53.727Z,61.50
2022-12-11T19:42:53.747Z,61.90
2022-12-11T19:43:53.655Z,61.70
2022-12-11T19:44:53.618Z,62.60
2022-12-11T19:45:53.469Z,62.30
2022-12-11T19:48:32.419Z,58.70
2022-12-11T19:49:33.321Z,60.90
2022-12-11T19:50:33.292Z,61.50
2022-12-11T19:51:33.147Z,60.60
2022-12-11T19:52:33.120Z,58.10
2022-12-11T19:53:33.012Z,59.80
2022-12-11T19:54:32.980Z,61.00
2022-12-11T19:55:32.952Z,59.40
2022-12-11T19:56:32.835Z,61.40
2022-12-11T19:57:32.856Z,59.90
2022-12-11T19:58:33.308Z,58.80
2022-12-11T19:59:32.682Z,60.60
2022-12-11T20:00:32.712Z,59.20
2022-12-11T20:01:32.520Z,59.30
2022-12-11T20:02:32.513Z,60.20
2022-12-11T20:03:32.398Z,60.40
2022-12-11T20:04:32.349Z,61.00
2022-12-11T20:05:32.259Z,60.50
2022-12-11T20:06:32.199Z,60.40
2022-12-11T20:07:32.130Z,62.30
2022-12-11T20:08:47.514Z,60.30
2022-12-11T20:09:32.033Z,61.00
2022-12-11T20:10:31.993Z,62.10
2022-12-11T20:11:31.897Z,60.00
2022-12-11T20:12:31.807Z,59.10
2022-12-11T20:13:31.714Z,58.90
2022-12-11T20:14:31.674Z,61.50
2022-12-11T20:15:31.607Z,62.10
2022-12-11T20:17:08.792Z,60.80
2022-12-11T20:17:31.552Z,59.30
2022-12-11T20:18:31.414Z,58.50
2022-12-11T20:19:31.349Z,59.90
2022-12-11T20:20:31.288Z,58.90
2022-12-11T20:21:31.192Z,60.10
2022-12-11T20:22:52.820Z,62.90
2022-12-11T20:23:31.089Z,63.10
2022-12-11T20:24:31.001Z,61.40
2022-12-11T20:25:30.977Z,61.50
2022-12-11T20:26:30.923Z,58.70
2022-12-11T20:27:30.855Z,63.60
2022-12-11T20:28:30.775Z,64.40
2022-12-11T20:29:30.688Z,61.40
2022-12-11T20:30:30.637Z,62.10
2022-12-11T20:31:30.607Z,61.90
2022-12-11T20:32:30.505Z,60.50
2022-12-11T20:33:30.414Z,63.80
2022-12-11T20:34:30.384Z,60.80
2022-12-11T20:35:30.378Z,61.70
2022-12-11T20:36:30.220Z,61.90
2022-12-11T20:37:30.159Z,61.80
2022-12-11T20:38:34.426Z,60.60
2022-12-11T20:39:30.081Z,61.50
2022-12-11T20:40:29.999Z,61.50
2022-12-11T20:41:29.939Z,59.00
2022-12-11T20:42:29.866Z,62.40
2022-12-11T20:43:29.846Z,61.90
2022-12-11T20:44:29.751Z,59.20
2022-12-11T20:45:29.716Z,61.10
2022-12-11T20:46:29.619Z,62.70
2022-12-11T20:47:29.540Z,63.90
2022-12-11T20:48:29.483Z,65.20
2022-12-11T20:49:29.390Z,64.90
2022-12-11T20:50:29.350Z,60.70
2022-12-11T20:51:29.280Z,61.10
2022-12-11T20:52:29.202Z,58.80
2022-12-11T20:53:29.160Z,58.70
2022-12-11T20:54:29.119Z,60.20
2022-12-11T20:55:29.116Z,61.40
2022-12-11T20:56:28.988Z,58.80
2022-12-11T20:57:28.922Z,59.20
2022-12-11T20:58:28.842Z,57.90
2022-12-11T20:59:28.771Z,60.00
2022-12-11T21:00:28.750Z,61.60
2022-12-11T21:01:28.707Z,63.70
2022-12-11T21:02:28.579Z,61.30
2022-12-11T21:03:28.583Z,63.40
2022-12-11T21:04:28.459Z,65.30
2022-12-11T21:05:28.386Z,62.60
2022-12-11T21:06:28.309Z,62.30
2022-12-11T21:07:28.257Z,63.00
2022-12-11T21:08:28.228Z,62.00
2022-12-11T21:09:28.151Z,63.50
2022-12-11T21:10:28.072Z,61.40
2022-12-11T21:11:27.971Z,64.00
2022-12-11T21:12:31.496Z,64.30
2022-12-11T21:13:27.897Z,61.80
2022-12-11T21:14:27.806Z,61.70
2022-12-11T21:15:27.765Z,61.70
2022-12-11T21:17:36.923Z,56.50
2022-12-11T21:18:37.865Z,60.40
2022-12-11T21:19:37.783Z,60.60
2022-12-11T21:20:37.737Z,60.80
2022-12-11T21:21:37.655Z,59.00
2022-12-11T21:22:37.590Z,61.90
2022-12-11T21:23:37.505Z,56.70
2022-12-11T21:24:37.417Z,59.50
2022-12-11T21:25:37.409Z,57.80
2022-12-11T21:26:37.329Z,60.10
2022-12-11T21:27:37.294Z,57.10
2022-12-11T21:28:37.664Z,55.90
2022-12-11T21:29:37.132Z,57.40
2022-12-11T21:30:37.061Z,58.80
2022-12-11T21:31:37.072Z,57.20
2022-12-11T21:32:36.952Z,55.50
2022-12-11T21:33:36.857Z,56.70
2022-12-11T21:34:57.758Z,53.30
2022-12-11T21:35:36.774Z,50.80
2022-12-11T21:36:36.699Z,50.60
2022-12-11T21:37:36.668Z,50.60
2022-12-11T21:38:36.607Z,48.70
2022-12-11T21:39:39.287Z,48.90
2022-12-11T21:40:36.445Z,47.90
2022-12-11T21:41:36.352Z,46.20
2022-12-11T21:42:36.312Z,43.40
2022-12-11T21:43:40.038Z,43.60
2022-12-11T21:46:36.099Z,39.10
2022-12-11T21:47:35.992Z,39.30
2022-12-11T21:48:35.952Z,40.30
2022-12-11T21:49:35.871Z,38.80
2022-12-11T21:50:35.782Z,40.80
2022-12-11T21:51:38.612Z,40.10
2022-12-11T21:52:35.934Z,42.10
2022-12-11T21:53:35.583Z,39.00
2022-12-11T21:54:35.516Z,40.80
2022-12-11T21:55:35.524Z,36.40
2022-12-11T21:56:35.447Z,39.40
2022-12-11T21:57:35.380Z,37.70
2022-12-11T21:58:35.301Z,39.20
2022-12-11T21:59:35.192Z,39.40
2022-12-11T22:00:35.154Z,38.40
2022-12-11T22:01:35.259Z,36.20
2022-12-11T22:02:40.480Z,37.40
2022-12-11T22:03:34.937Z,39.00
2022-12-11T22:04:34.860Z,38.50
2022-12-11T22:05:34.824Z,38.80
2022-12-11T22:06:34.741Z,36.20
2022-12-11T22:07:34.669Z,36.90
2022-12-11T22:08:34.621Z,39.70
2022-12-11T22:09:34.553Z,37.70
2022-12-11T22:10:55.471Z,39.40
2022-12-11T22:11:34.445Z,38.40
2022-12-11T22:12:34.354Z,38.50
2022-12-11T22:13:34.284Z,37.90
2022-12-11T22:14:34.288Z,37.80
2022-12-11T22:15:34.225Z,39.90
2022-12-11T22:16:34.226Z,35.50
2022-12-11T22:17:34.004Z,38.70
2022-12-11T22:18:34.002Z,34.90
2022-12-11T22:19:33.880Z,37.40
2022-12-11T22:20:33.840Z,36.00
2022-12-11T22:21:33.803Z,35.50
2022-12-11T22:22:33.732Z,33.50
2022-12-11T22:23:33.640Z,35.00
2022-12-11T22:24:33.553Z,35.30
2022-12-11T22:25:33.513Z,36.00
2022-12-11T22:26:33.452Z,36.20
2022-12-11T22:27:33.391Z,38.60
2022-12-11T22:28:33.403Z,38.70
2022-12-11T22:29:33.231Z,37.60
2022-12-11T22:30:33.313Z,36.00
2022-12-11T22:31:33.155Z,35.20
2022-12-11T22:32:33.079Z,36.20
2022-12-11T22:33:33.005Z,36.00
2022-12-11T22:34:33.194Z,36.10
2022-12-11T22:35:32.845Z,35.40
2022-12-11T22:36:32.838Z,37.00
2022-12-11T22:37:32.743Z,37.60
2022-12-11T22:38:32.681Z,37.50
2022-12-11T22:39:32.610Z,39.70
2022-12-11T22:40:32.629Z,39.10
2022-12-11T22:41:32.490Z,40.30
2022-12-11T22:42:32.440Z,38.90
2022-12-11T22:43:32.368Z,37.60
2022-12-11T22:44:32.283Z,36.30
2022-12-11T22:45:32.309Z,35.50
2022-12-11T22:46:32.181Z,34.30
2022-12-11T22:47:32.124Z,35.10
2022-12-11T22:48:32.247Z,36.00
2022-12-11T22:49:31.988Z,35.40
2022-12-11T22:50:31.967Z,34.80
2022-12-11T22:51:31.867Z,35.60
2022-12-11T22:52:31.770Z,34.60
2022-12-11T22:53:31.736Z,32.20
2022-12-11T22:54:31.645Z,34.60
2022-12-11T22:55:31.574Z,32.90
2022-12-11T22:56:31.538Z,32.40
2022-12-11T22:57:31.428Z,32.60
2022-12-11T22:58:31.414Z,30.80
2022-12-11T22:59:31.358Z,32.40
2022-12-11T23:00:31.257Z,31.00
2022-12-11T23:01:31.169Z,31.30
2022-12-11T23:02:31.236Z,33.90
2022-12-11T23:03:31.104Z,33.30
2022-12-11T23:04:51.953Z,33.50
2022-12-11T23:05:30.945Z,34.60
2022-12-11T23:06:30.868Z,34.70
2022-12-11T23:07:30.834Z,36.10
2022-12-11T23:08:30.879Z,34.20
2022-12-11T23:09:30.643Z,33.80
2022-12-11T23:10:30.601Z,33.60
2022-12-11T23:11:30.547Z,32.40
2022-12-11T23:12:30.463Z,33.90
2022-12-11T23:13:30.470Z,34.20
2022-12-11T23:14:30.353Z,34.20
2022-12-11T23:15:30.253Z,34.00
2022-12-11T23:16:30.316Z,28.30
2022-12-11T23:17:30.181Z,29.20
2022-12-11T23:18:30.147Z,30.20
2022-12-11T23:19:30.025Z,31.50
2022-12-11T23:20:29.933Z,31.30
2022-12-11T23:21:29.918Z,30.40
2022-12-11T23:22:29.859Z,29.80
2022-12-11T23:23:29.788Z,28.60
2022-12-11T23:24:29.702Z,29.30
2022-12-11T23:25:29.659Z,29.20
2022-12-11T23:26:29.585Z,30.00
2022-12-11T23:27:29.534Z,28.50
2022-12-11T23:28:29.469Z,29.20
2022-12-11T23:29:29.387Z,30.70
2022-12-11T23:30:29.319Z,31.40
2022-12-11T23:31:29.241Z,31.20
2022-12-11T23:32:29.145Z,32.60
2022-12-11T23:33:29.066Z,30.50
2022-12-11T23:34:29.050Z,32.90
2022-12-11T23:35:28.942Z,32.40
2022-12-11T23:36:28.910Z,32.40
2022-12-11T23:37:28.833Z,34.00
2022-12-11T23:38:28.740Z,34.00
2022-12-11T23:39:28.679Z,35.00
2022-12-11T23:40:58.521Z,33.80
2022-12-11T23:41:28.627Z,34.60
2022-12-11T23:42:28.570Z,33.60
2022-12-11T23:43:28.497Z,35.50
2022-12-11T23:44:28.439Z,30.90
2022-12-11T23:45:28.339Z,32.80
2022-12-11T23:46:28.303Z,30.60
2022-12-11T23:47:28.169Z,32.60
2022-12-11T23:48:28.125Z,31.00
2022-12-11T23:49:28.084Z,30.40
2022-12-11T23:50:28.052Z,27.60
2022-12-11T23:51:27.934Z,27.90
2022-12-11T23:52:27.929Z,28.40
2022-12-11T23:53:27.826Z,29.10
2022-12-11T23:54:27.765Z,29.60
2022-12-11T23:55:27.733Z,29.70
2022-12-11T23:56:27.671Z,29.70
2022-12-11T23:57:27.547Z,29.10
2022-12-11T23:58:48.482Z,29.90
2022-12-11T23:59:27.416Z,29.40
